sensor_id;sensor_type;location;lat;lon;timestamp;P1;durP1;ratioP1;P2;durP2;ratioP2
4106;SDS011;21906;50.812;7.132;2023-03-01T00:01:07;17.47;;;11.47;;
4106;SDS011;21906;50.812;7.132;2023-03-01T00:03:36;19.73;;;11.00;;
4106;SDS011;21906;50.812;7.132;2023-03-01T00:06:03;17.00;;;11.87;;
4106;SDS011;21906;50.812;7.132;2023-03-01T00:08:29;18.30;;;11.63;;
4106;SDS011;21906;50.812;7.132;2023-03-01T00:13:36;16.70;;;10.47;;
4106;SDS011;21906;50.812;7.132;2023-03-01T00:16:11;13.33;;;10.83;;
4106;SDS011;21906;50.812;7.132;2023-03-01T00:18:38;15.60;;;11.43;;
4106;SDS011;21906;50.812;7.132;2023-03-01T00:21:04;17.30;;;11.70;;
4106;SDS011;21906;50.812;7.132;2023-03-01T00:23:30;17.37;;;12.13;;
4106;SDS011;21906;50.812;7.132;2023-03-01T00:25:56;16.87;;;11.60;;
4106;SDS011;21906;50.812;7.132;2023-03-01T00:28:22;16.00;;;11.20;;
4106;SDS011;21906;50.812;7.132;2023-03-01T00:30:48;15.17;;;10.57;;
4106;SDS011;21906;50.812;7.132;2023-03-01T00:33:14;16.83;;;11.50;;
4106;SDS011;21906;50.812;7.132;2023-03-01T00:35:40;16.63;;;10.90;;
4106;SDS011;21906;50.812;7.132;2023-03-01T00:38:05;14.10;;;11.17;;
4106;SDS011;21906;50.812;7.132;2023-03-01T00:40:32;18.10;;;11.27;;
4106;SDS011;21906;50.812;7.132;2023-03-01T00:42:58;15.67;;;11.23;;
4106;SDS011;21906;50.812;7.132;2023-03-01T00:45:24;15.47;;;11.10;;
4106;SDS011;21906;50.812;7.132;2023-03-01T00:47:51;16.37;;;11.30;;
4106;SDS011;21906;50.812;7.132;2023-03-01T00:50:17;15.37;;;11.00;;
4106;SDS011;21906;50.812;7.132;2023-03-01T00:52:43;14.80;;;10.70;;
4106;SDS011;21906;50.812;7.132;2023-03-01T00:55:09;17.70;;;11.90;;
4106;SDS011;21906;50.812;7.132;2023-03-01T00:57:36;16.47;;;11.37;;
4106;SDS011;21906;50.812;7.132;2023-03-01T01:00:03;17.00;;;10.40;;
4106;SDS011;21906;50.812;7.132;2023-03-01T01:02:34;17.00;;;10.67;;
4106;SDS011;21906;50.812;7.132;2023-03-01T01:05:00;15.67;;;10.83;;
4106;SDS011;21906;50.812;7.132;2023-03-01T01:07:26;18.67;;;11.37;;
4106;SDS011;21906;50.812;7.132;2023-03-01T01:09:52;15.73;;;10.57;;
4106;SDS011;21906;50.812;7.132;2023-03-01T01:12:19;16.00;;;11.17;;
4106;SDS011;21906;50.812;7.132;2023-03-01T01:14:45;16.87;;;11.03;;
4106;SDS011;21906;50.812;7.132;2023-03-01T01:17:11;17.47;;;10.47;;
4106;SDS011;21906;50.812;7.132;2023-03-01T01:19:37;17.63;;;10.90;;
4106;SDS011;21906;50.812;7.132;2023-03-01T01:22:03;15.33;;;10.50;;
4106;SDS011;21906;50.812;7.132;2023-03-01T01:24:32;14.07;;;9.70;;
4106;SDS011;21906;50.812;7.132;2023-03-01T01:26:57;15.67;;;10.07;;
4106;SDS011;21906;50.812;7.132;2023-03-01T01:29:23;13.70;;;10.03;;
4106;SDS011;21906;50.812;7.132;2023-03-01T01:31:50;20.37;;;11.27;;
4106;SDS011;21906;50.812;7.132;2023-03-01T01:34:20;15.00;;;10.03;;
4106;SDS011;21906;50.812;7.132;2023-03-01T01:36:50;13.63;;;9.83;;
4106;SDS011;21906;50.812;7.132;2023-03-01T01:39:19;13.93;;;10.40;;
4106;SDS011;21906;50.812;7.132;2023-03-01T01:41:49;14.23;;;10.07;;
4106;SDS011;21906;50.812;7.132;2023-03-01T01:44:22;16.27;;;10.50;;
4106;SDS011;21906;50.812;7.132;2023-03-01T01:50:01;14.27;;;9.67;;
4106;SDS011;21906;50.812;7.132;2023-03-01T01:52:36;15.50;;;9.80;;
4106;SDS011;21906;50.812;7.132;2023-03-01T01:55:20;17.20;;;10.20;;
4106;SDS011;21906;50.812;7.132;2023-03-01T01:57:49;14.80;;;10.27;;
4106;SDS011;21906;50.812;7.132;2023-03-01T02:00:27;13.93;;;10.30;;
4106;SDS011;21906;50.812;7.132;2023-03-01T02:03:00;16.83;;;10.03;;
4106;SDS011;21906;50.812;7.132;2023-03-01T02:08:34;15.73;;;10.57;;
4106;SDS011;21906;50.812;7.132;2023-03-01T02:11:05;14.13;;;9.37;;
4106;SDS011;21906;50.812;7.132;2023-03-01T02:13:33;13.33;;;9.80;;
4106;SDS011;21906;50.812;7.132;2023-03-01T02:16:02;15.60;;;10.27;;
4106;SDS011;21906;50.812;7.132;2023-03-01T02:18:32;16.23;;;10.00;;
4106;SDS011;21906;50.812;7.132;2023-03-01T02:21:04;13.53;;;9.47;;
4106;SDS011;21906;50.812;7.132;2023-03-01T02:23:56;13.10;;;9.83;;
4106;SDS011;21906;50.812;7.132;2023-03-01T02:26:33;17.90;;;9.83;;
4106;SDS011;21906;50.812;7.132;2023-03-01T02:29:18;13.57;;;10.43;;
4106;SDS011;21906;50.812;7.132;2023-03-01T02:32:08;14.70;;;9.70;;
4106;SDS011;21906;50.812;7.132;2023-03-01T02:34:41;12.97;;;9.20;;
4106;SDS011;21906;50.812;7.132;2023-03-01T02:37:14;13.33;;;9.60;;
4106;SDS011;21906;50.812;7.132;2023-03-01T02:39:53;14.70;;;9.80;;
4106;SDS011;21906;50.812;7.132;2023-03-01T02:42:28;15.50;;;10.47;;
4106;SDS011;21906;50.812;7.132;2023-03-01T02:45:07;18.90;;;10.17;;
4106;SDS011;21906;50.812;7.132;2023-03-01T02:47:36;15.40;;;10.33;;
4106;SDS011;21906;50.812;7.132;2023-03-01T02:50:36;14.27;;;9.07;;
4106;SDS011;21906;50.812;7.132;2023-03-01T02:56:27;14.83;;;10.00;;
4106;SDS011;21906;50.812;7.132;2023-03-01T02:58:54;15.00;;;9.67;;
4106;SDS011;21906;50.812;7.132;2023-03-01T03:01:33;19.43;;;10.30;;
4106;SDS011;21906;50.812;7.132;2023-03-01T03:04:08;15.27;;;10.30;;
4106;SDS011;21906;50.812;7.132;2023-03-01T03:10:00;15.57;;;10.03;;
4106;SDS011;21906;50.812;7.132;2023-03-01T03:12:32;16.23;;;9.87;;
4106;SDS011;21906;50.812;7.132;2023-03-01T03:15:28;15.20;;;9.87;;
4106;SDS011;21906;50.812;7.132;2023-03-01T03:18:26;14.60;;;9.33;;
4106;SDS011;21906;50.812;7.132;2023-03-01T03:21:25;12.80;;;9.27;;
4106;SDS011;21906;50.812;7.132;2023-03-01T03:24:09;17.77;;;10.00;;
4106;SDS011;21906;50.812;7.132;2023-03-01T03:26:53;15.00;;;10.10;;
4106;SDS011;21906;50.812;7.132;2023-03-01T03:29:30;15.03;;;10.13;;
4106;SDS011;21906;50.812;7.132;2023-03-01T03:32:16;15.60;;;9.70;;
4106;SDS011;21906;50.812;7.132;2023-03-01T03:34:48;14.40;;;10.10;;
4106;SDS011;21906;50.812;7.132;2023-03-01T03:37:17;13.63;;;9.60;;
4106;SDS011;21906;50.812;7.132;2023-03-01T03:40:01;14.90;;;10.13;;
4106;SDS011;21906;50.812;7.132;2023-03-01T03:42:40;13.23;;;9.80;;
4106;SDS011;21906;50.812;7.132;2023-03-01T03:45:10;18.87;;;10.40;;
4106;SDS011;21906;50.812;7.132;2023-03-01T03:47:39;16.80;;;10.40;;
4106;SDS011;21906;50.812;7.132;2023-03-01T03:50:13;14.30;;;9.33;;
4106;SDS011;21906;50.812;7.132;2023-03-01T03:52:41;14.27;;;10.00;;
4106;SDS011;21906;50.812;7.132;2023-03-01T03:55:09;14.00;;;9.73;;
4106;SDS011;21906;50.812;7.132;2023-03-01T03:57:44;13.73;;;9.57;;
4106;SDS011;21906;50.812;7.132;2023-03-01T04:00:21;13.73;;;9.60;;
4106;SDS011;21906;50.812;7.132;2023-03-01T04:02:49;13.73;;;10.20;;
4106;SDS011;21906;50.812;7.132;2023-03-01T04:05:26;15.87;;;10.30;;
4106;SDS011;21906;50.812;7.132;2023-03-01T04:07:58;17.73;;;10.50;;
4106;SDS011;21906;50.812;7.132;2023-03-01T04:13:24;19.77;;;10.87;;
4106;SDS011;21906;50.812;7.132;2023-03-01T04:19:06;17.23;;;10.27;;
4106;SDS011;21906;50.812;7.132;2023-03-01T04:21:35;16.40;;;9.90;;
4106;SDS011;21906;50.812;7.132;2023-03-01T04:24:07;13.70;;;10.13;;
4106;SDS011;21906;50.812;7.132;2023-03-01T04:26:34;14.50;;;10.30;;
4106;SDS011;21906;50.812;7.132;2023-03-01T04:29:06;17.67;;;10.20;;
4106;SDS011;21906;50.812;7.132;2023-03-01T04:31:41;13.70;;;9.80;;
4106;SDS011;21906;50.812;7.132;2023-03-01T04:34:07;19.00;;;10.17;;
4106;SDS011;21906;50.812;7.132;2023-03-01T04:36:38;17.43;;;11.03;;
4106;SDS011;21906;50.812;7.132;2023-03-01T04:39:07;16.50;;;10.10;;
4106;SDS011;21906;50.812;7.132;2023-03-01T04:41:37;16.03;;;10.17;;
4106;SDS011;21906;50.812;7.132;2023-03-01T04:44:08;15.00;;;10.20;;
4106;SDS011;21906;50.812;7.132;2023-03-01T04:46:44;16.33;;;11.23;;
4106;SDS011;21906;50.812;7.132;2023-03-01T04:49:25;14.00;;;9.90;;
4106;SDS011;21906;50.812;7.132;2023-03-01T04:51:56;14.70;;;10.37;;
4106;SDS011;21906;50.812;7.132;2023-03-01T04:54:27;16.43;;;10.90;;
4106;SDS011;21906;50.812;7.132;2023-03-01T04:56:57;16.70;;;10.00;;
4106;SDS011;21906;50.812;7.132;2023-03-01T04:59:50;16.60;;;10.10;;
4106;SDS011;21906;50.812;7.132;2023-03-01T05:02:43;16.60;;;10.50;;
4106;SDS011;21906;50.812;7.132;2023-03-01T05:05:32;15.17;;;9.97;;
4106;SDS011;21906;50.812;7.132;2023-03-01T05:08:15;17.47;;;10.50;;
4106;SDS011;21906;50.812;7.132;2023-03-01T05:10:51;14.50;;;10.13;;
4106;SDS011;21906;50.812;7.132;2023-03-01T05:13:26;17.50;;;11.20;;
4106;SDS011;21906;50.812;7.132;2023-03-01T05:16:12;16.60;;;10.50;;
4106;SDS011;21906;50.812;7.132;2023-03-01T05:18:41;15.67;;;10.40;;
4106;SDS011;21906;50.812;7.132;2023-03-01T05:21:42;15.77;;;10.50;;
4106;SDS011;21906;50.812;7.132;2023-03-01T05:24:27;17.87;;;10.80;;
4106;SDS011;21906;50.812;7.132;2023-03-01T05:26:54;16.10;;;10.73;;
4106;SDS011;21906;50.812;7.132;2023-03-01T05:29:27;18.57;;;10.57;;
4106;SDS011;21906;50.812;7.132;2023-03-01T05:32:10;17.77;;;10.93;;
4106;SDS011;21906;50.812;7.132;2023-03-01T05:35:23;12.47;;;9.60;;
4106;SDS011;21906;50.812;7.132;2023-03-01T05:38:00;14.80;;;10.27;;
4106;SDS011;21906;50.812;7.132;2023-03-01T05:40:38;18.10;;;11.40;;
4106;SDS011;21906;50.812;7.132;2023-03-01T05:43:17;17.07;;;10.83;;
4106;SDS011;21906;50.812;7.132;2023-03-01T05:46:06;16.60;;;10.50;;
4106;SDS011;21906;50.812;7.132;2023-03-01T05:48:42;15.20;;;10.13;;
4106;SDS011;21906;50.812;7.132;2023-03-01T05:51:17;15.30;;;10.43;;
4106;SDS011;21906;50.812;7.132;2023-03-01T05:53:44;20.10;;;11.33;;
4106;SDS011;21906;50.812;7.132;2023-03-01T05:56:21;17.97;;;11.17;;
4106;SDS011;21906;50.812;7.132;2023-03-01T05:58:54;17.77;;;10.13;;
4106;SDS011;21906;50.812;7.132;2023-03-01T06:01:26;21.03;;;11.07;;
4106;SDS011;21906;50.812;7.132;2023-03-01T06:07:15;15.47;;;10.10;;
4106;SDS011;21906;50.812;7.132;2023-03-01T06:09:47;22.83;;;10.33;;
4106;SDS011;21906;50.812;7.132;2023-03-01T06:12:22;16.73;;;10.17;;
4106;SDS011;21906;50.812;7.132;2023-03-01T06:14:48;17.57;;;10.30;;
4106;SDS011;21906;50.812;7.132;2023-03-01T06:17:31;17.43;;;10.40;;
4106;SDS011;21906;50.812;7.132;2023-03-01T06:20:07;18.93;;;10.47;;
4106;SDS011;21906;50.812;7.132;2023-03-01T06:22:34;17.33;;;10.83;;
4106;SDS011;21906;50.812;7.132;2023-03-01T06:25:11;16.80;;;10.20;;
4106;SDS011;21906;50.812;7.132;2023-03-01T06:27:42;17.03;;;10.37;;
4106;SDS011;21906;50.812;7.132;2023-03-01T06:30:28;17.67;;;10.53;;
4106;SDS011;21906;50.812;7.132;2023-03-01T06:33:01;17.30;;;10.80;;
4106;SDS011;21906;50.812;7.132;2023-03-01T06:35:55;16.77;;;11.30;;
4106;SDS011;21906;50.812;7.132;2023-03-01T06:38:44;15.73;;;10.90;;
4106;SDS011;21906;50.812;7.132;2023-03-01T06:41:19;17.53;;;11.10;;
4106;SDS011;21906;50.812;7.132;2023-03-01T06:44:20;20.30;;;11.57;;
4106;SDS011;21906;50.812;7.132;2023-03-01T06:46:58;19.10;;;12.30;;
4106;SDS011;21906;50.812;7.132;2023-03-01T06:49:24;23.27;;;11.83;;
4106;SDS011;21906;50.812;7.132;2023-03-01T06:52:03;24.17;;;13.27;;
4106;SDS011;21906;50.812;7.132;2023-03-01T06:54:43;26.07;;;13.80;;
4106;SDS011;21906;50.812;7.132;2023-03-01T06:58:01;22.37;;;12.80;;
4106;SDS011;21906;50.812;7.132;2023-03-01T07:00:16;25.13;;;13.60;;
4106;SDS011;21906;50.812;7.132;2023-03-01T07:02:42;19.57;;;12.00;;
4106;SDS011;21906;50.812;7.132;2023-03-01T07:05:08;21.97;;;12.20;;
4106;SDS011;21906;50.812;7.132;2023-03-01T07:14:12;16.10;;;10.23;;
4106;SDS011;21906;50.812;7.132;2023-03-01T07:16:38;23.80;;;12.00;;
4106;SDS011;21906;50.812;7.132;2023-03-01T07:19:07;22.10;;;11.83;;
4106;SDS011;21906;50.812;7.132;2023-03-01T07:21:39;22.20;;;11.70;;
4106;SDS011;21906;50.812;7.132;2023-03-01T07:24:06;20.20;;;11.50;;
4106;SDS011;21906;50.812;7.132;2023-03-01T07:26:35;19.73;;;10.83;;
4106;SDS011;21906;50.812;7.132;2023-03-01T07:29:07;21.67;;;11.57;;
4106;SDS011;21906;50.812;7.132;2023-03-01T07:31:35;19.10;;;11.20;;
4106;SDS011;21906;50.812;7.132;2023-03-01T07:34:02;21.40;;;12.90;;
4106;SDS011;21906;50.812;7.132;2023-03-01T07:36:31;21.20;;;11.10;;
4106;SDS011;21906;50.812;7.132;2023-03-01T07:39:02;22.00;;;11.47;;
4106;SDS011;21906;50.812;7.132;2023-03-01T07:41:34;20.87;;;12.23;;
4106;SDS011;21906;50.812;7.132;2023-03-01T07:44:00;19.73;;;11.57;;
4106;SDS011;21906;50.812;7.132;2023-03-01T07:46:29;17.40;;;11.37;;
4106;SDS011;21906;50.812;7.132;2023-03-01T07:48:55;20.57;;;12.33;;
4106;SDS011;21906;50.812;7.132;2023-03-01T07:51:22;18.17;;;11.63;;
4106;SDS011;21906;50.812;7.132;2023-03-01T07:53:48;18.63;;;11.27;;
4106;SDS011;21906;50.812;7.132;2023-03-01T07:56:29;18.30;;;11.63;;
4106;SDS011;21906;50.812;7.132;2023-03-01T07:58:55;20.63;;;12.40;;
4106;SDS011;21906;50.812;7.132;2023-03-01T08:01:21;22.20;;;12.77;;
4106;SDS011;21906;50.812;7.132;2023-03-01T08:03:47;20.30;;;12.33;;
4106;SDS011;21906;50.812;7.132;2023-03-01T08:06:14;19.47;;;12.50;;
4106;SDS011;21906;50.812;7.132;2023-03-01T08:08:42;22.30;;;12.43;;
4106;SDS011;21906;50.812;7.132;2023-03-01T08:11:09;19.63;;;12.53;;
4106;SDS011;21906;50.812;7.132;2023-03-01T08:13:36;17.37;;;11.47;;
4106;SDS011;21906;50.812;7.132;2023-03-01T08:16:10;21.23;;;12.00;;
4106;SDS011;21906;50.812;7.132;2023-03-01T08:18:37;21.40;;;12.10;;
4106;SDS011;21906;50.812;7.132;2023-03-01T08:21:08;19.23;;;12.10;;
4106;SDS011;21906;50.812;7.132;2023-03-01T08:23:37;21.00;;;12.63;;
4106;SDS011;21906;50.812;7.132;2023-03-01T08:26:11;21.50;;;12.70;;
4106;SDS011;21906;50.812;7.132;2023-03-01T08:28:37;20.37;;;13.13;;
4106;SDS011;21906;50.812;7.132;2023-03-01T08:31:12;19.00;;;12.70;;
4106;SDS011;21906;50.812;7.132;2023-03-01T08:33:43;24.03;;;14.17;;
4106;SDS011;21906;50.812;7.132;2023-03-01T08:36:15;21.97;;;13.20;;
4106;SDS011;21906;50.812;7.132;2023-03-01T08:38:44;19.90;;;12.30;;
4106;SDS011;21906;50.812;7.132;2023-03-01T08:41:10;22.50;;;12.73;;
4106;SDS011;21906;50.812;7.132;2023-03-01T08:43:36;21.20;;;13.30;;
4106;SDS011;21906;50.812;7.132;2023-03-01T08:46:02;23.03;;;13.80;;
4106;SDS011;21906;50.812;7.132;2023-03-01T08:48:28;26.50;;;13.77;;
4106;SDS011;21906;50.812;7.132;2023-03-01T08:50:54;20.43;;;12.83;;
4106;SDS011;21906;50.812;7.132;2023-03-01T08:53:20;19.17;;;13.23;;
4106;SDS011;21906;50.812;7.132;2023-03-01T08:55:46;22.40;;;14.03;;
4106;SDS011;21906;50.812;7.132;2023-03-01T08:58:11;20.20;;;13.60;;
4106;SDS011;21906;50.812;7.132;2023-03-01T09:00:37;22.33;;;13.83;;
4106;SDS011;21906;50.812;7.132;2023-03-01T09:03:03;22.20;;;14.03;;
4106;SDS011;21906;50.812;7.132;2023-03-01T09:05:33;20.80;;;13.70;;
4106;SDS011;21906;50.812;7.132;2023-03-01T09:07:59;20.70;;;14.00;;
4106;SDS011;21906;50.812;7.132;2023-03-01T09:10:25;22.43;;;14.10;;
4106;SDS011;21906;50.812;7.132;2023-03-01T09:12:51;21.53;;;13.80;;
4106;SDS011;21906;50.812;7.132;2023-03-01T09:15:17;25.60;;;14.77;;
4106;SDS011;21906;50.812;7.132;2023-03-01T09:17:43;23.87;;;13.97;;
4106;SDS011;21906;50.812;7.132;2023-03-01T09:20:09;22.10;;;13.60;;
4106;SDS011;21906;50.812;7.132;2023-03-01T09:22:35;22.37;;;14.57;;
4106;SDS011;21906;50.812;7.132;2023-03-01T09:25:01;23.53;;;14.90;;
4106;SDS011;21906;50.812;7.132;2023-03-01T09:27:27;27.73;;;15.40;;
4106;SDS011;21906;50.812;7.132;2023-03-01T09:29:53;23.57;;;15.00;;
4106;SDS011;21906;50.812;7.132;2023-03-01T09:32:21;22.67;;;14.70;;
4106;SDS011;21906;50.812;7.132;2023-03-01T09:34:49;22.50;;;14.40;;
4106;SDS011;21906;50.812;7.132;2023-03-01T09:37:29;26.13;;;15.20;;
4106;SDS011;21906;50.812;7.132;2023-03-01T09:39:57;23.40;;;14.77;;
4106;SDS011;21906;50.812;7.132;2023-03-01T09:42:22;26.43;;;14.90;;
4106;SDS011;21906;50.812;7.132;2023-03-01T09:44:56;23.00;;;14.80;;
4106;SDS011;21906;50.812;7.132;2023-03-01T09:47:28;29.40;;;15.23;;
4106;SDS011;21906;50.812;7.132;2023-03-01T09:53:01;23.90;;;14.57;;
4106;SDS011;21906;50.812;7.132;2023-03-01T09:55:37;22.40;;;13.30;;
4106;SDS011;21906;50.812;7.132;2023-03-01T10:04:04;19.43;;;13.10;;
4106;SDS011;21906;50.812;7.132;2023-03-01T10:06:41;22.43;;;13.83;;
4106;SDS011;21906;50.812;7.132;2023-03-01T10:09:16;23.97;;;13.60;;
4106;SDS011;21906;50.812;7.132;2023-03-01T10:11:44;18.20;;;12.40;;
4106;SDS011;21906;50.812;7.132;2023-03-01T10:19:38;16.03;;;10.70;;
4106;SDS011;21906;50.812;7.132;2023-03-01T10:22:13;16.40;;;10.70;;
4106;SDS011;21906;50.812;7.132;2023-03-01T10:24:43;18.63;;;12.00;;
4106;SDS011;21906;50.812;7.132;2023-03-01T10:33:27;19.07;;;10.60;;
4106;SDS011;21906;50.812;7.132;2023-03-01T10:35:57;16.43;;;10.97;;
4106;SDS011;21906;50.812;7.132;2023-03-01T10:38:23;14.53;;;10.77;;
4106;SDS011;21906;50.812;7.132;2023-03-01T10:40:56;15.40;;;10.27;;
4106;SDS011;21906;50.812;7.132;2023-03-01T10:43:44;11.50;;;9.40;;
4106;SDS011;21906;50.812;7.132;2023-03-01T10:51:50;10.20;;;8.70;;
4106;SDS011;21906;50.812;7.132;2023-03-01T10:54:25;16.10;;;10.87;;
4106;SDS011;21906;50.812;7.132;2023-03-01T10:56:56;15.52;;;11.70;;
4106;SDS011;21906;50.812;7.132;2023-03-01T10:59:34;16.67;;;10.87;;
4106;SDS011;21906;50.812;7.132;2023-03-01T11:07:54;15.50;;;10.27;;
4106;SDS011;21906;50.812;7.132;2023-03-01T11:10:23;16.47;;;11.10;;
4106;SDS011;21906;50.812;7.132;2023-03-01T11:13:05;17.00;;;10.17;;
4106;SDS011;21906;50.812;7.132;2023-03-01T11:15:42;13.70;;;10.03;;
4106;SDS011;21906;50.812;7.132;2023-03-01T11:18:23;11.60;;;9.63;;
4106;SDS011;21906;50.812;7.132;2023-03-01T11:20:57;14.57;;;9.70;;
4106;SDS011;21906;50.812;7.132;2023-03-01T11:23:27;10.80;;;9.17;;
4106;SDS011;21906;50.812;7.132;2023-03-01T11:25:57;13.80;;;9.90;;
4106;SDS011;21906;50.812;7.132;2023-03-01T11:28:27;12.87;;;9.63;;
4106;SDS011;21906;50.812;7.132;2023-03-01T11:31:00;15.03;;;10.80;;
4106;SDS011;21906;50.812;7.132;2023-03-01T11:33:40;15.40;;;10.97;;
4106;SDS011;21906;50.812;7.132;2023-03-01T11:36:29;14.83;;;10.30;;
4106;SDS011;21906;50.812;7.132;2023-03-01T11:39:23;14.70;;;11.30;;
4106;SDS011;21906;50.812;7.132;2023-03-01T11:44:56;19.37;;;12.50;;
4106;SDS011;21906;50.812;7.132;2023-03-01T11:50:26;13.07;;;10.67;;
4106;SDS011;21906;50.812;7.132;2023-03-01T11:53:39;13.37;;;10.50;;
4106;SDS011;21906;50.812;7.132;2023-03-01T11:58:53;12.53;;;10.00;;
4106;SDS011;21906;50.812;7.132;2023-03-01T12:19:18;12.83;;;9.23;;
4106;SDS011;21906;50.812;7.132;2023-03-01T12:25:08;15.17;;;9.60;;
4106;SDS011;21906;50.812;7.132;2023-03-01T12:28:07;10.77;;;9.40;;
4106;SDS011;21906;50.812;7.132;2023-03-01T12:33:13;13.20;;;9.20;;
4106;SDS011;21906;50.812;7.132;2023-03-01T12:35:58;11.40;;;9.83;;
4106;SDS011;21906;50.812;7.132;2023-03-01T12:38:42;10.63;;;8.93;;
4106;SDS011;21906;50.812;7.132;2023-03-01T12:46:41;13.13;;;9.77;;
4106;SDS011;21906;50.812;7.132;2023-03-01T12:49:26;12.10;;;9.17;;
4106;SDS011;21906;50.812;7.132;2023-03-01T12:52:35;12.07;;;9.40;;
4106;SDS011;21906;50.812;7.132;2023-03-01T12:55:30;13.47;;;10.10;;
4106;SDS011;21906;50.812;7.132;2023-03-01T13:01:03;13.97;;;11.03;;
4106;SDS011;21906;50.812;7.132;2023-03-01T13:03:38;10.40;;;9.10;;
4106;SDS011;21906;50.812;7.132;2023-03-01T13:08:58;10.40;;;9.23;;
4106;SDS011;21906;50.812;7.132;2023-03-01T13:11:46;9.33;;;8.30;;
4106;SDS011;21906;50.812;7.132;2023-03-01T13:16:53;11.50;;;9.70;;
4106;SDS011;21906;50.812;7.132;2023-03-01T13:19:20;9.93;;;8.93;;
4106;SDS011;21906;50.812;7.132;2023-03-01T13:21:50;10.80;;;9.30;;
4106;SDS011;21906;50.812;7.132;2023-03-01T13:24:38;9.63;;;8.13;;
4106;SDS011;21906;50.812;7.132;2023-03-01T13:29:45;9.40;;;8.40;;
4106;SDS011;21906;50.812;7.132;2023-03-01T13:34:51;10.87;;;8.60;;
4106;SDS011;21906;50.812;7.132;2023-03-01T13:37:40;9.83;;;8.20;;
4106;SDS011;21906;50.812;7.132;2023-03-01T13:42:48;8.23;;;7.43;;
4106;SDS011;21906;50.812;7.132;2023-03-01T13:48:15;8.87;;;7.83;;
4106;SDS011;21906;50.812;7.132;2023-03-01T13:51:03;9.03;;;7.40;;
4106;SDS011;21906;50.812;7.132;2023-03-01T13:53:37;11.77;;;8.27;;
4106;SDS011;21906;50.812;7.132;2023-03-01T13:56:09;8.40;;;7.60;;
4106;SDS011;21906;50.812;7.132;2023-03-01T13:59:02;9.40;;;8.40;;
4106;SDS011;21906;50.812;7.132;2023-03-01T14:01:33;8.40;;;7.50;;
4106;SDS011;21906;50.812;7.132;2023-03-01T14:04:01;8.93;;;8.00;;
4106;SDS011;21906;50.812;7.132;2023-03-01T14:06:29;9.50;;;8.30;;
4106;SDS011;21906;50.812;7.132;2023-03-01T14:09:14;9.00;;;7.53;;
4106;SDS011;21906;50.812;7.132;2023-03-01T14:11:56;9.23;;;7.43;;
4106;SDS011;21906;50.812;7.132;2023-03-01T14:17:24;7.83;;;7.00;;
4106;SDS011;21906;50.812;7.132;2023-03-01T14:20:02;8.20;;;7.27;;
4106;SDS011;21906;50.812;7.132;2023-03-01T14:22:36;7.73;;;6.90;;
4106;SDS011;21906;50.812;7.132;2023-03-01T14:25:17;7.93;;;7.13;;
4106;SDS011;21906;50.812;7.132;2023-03-01T14:28:13;7.97;;;7.20;;
4106;SDS011;21906;50.812;7.132;2023-03-01T14:30:44;7.50;;;6.67;;
4106;SDS011;21906;50.812;7.132;2023-03-01T14:33:31;7.50;;;6.80;;
4106;SDS011;21906;50.812;7.132;2023-03-01T14:36:00;8.17;;;7.37;;
4106;SDS011;21906;50.812;7.132;2023-03-01T14:41:25;8.47;;;7.60;;
4106;SDS011;21906;50.812;7.132;2023-03-01T14:43:55;9.03;;;8.07;;
4106;SDS011;21906;50.812;7.132;2023-03-01T14:49:06;10.00;;;9.00;;
4106;SDS011;21906;50.812;7.132;2023-03-01T14:51:39;10.37;;;9.10;;
4106;SDS011;21906;50.812;7.132;2023-03-01T14:56:54;8.97;;;8.07;;
4106;SDS011;21906;50.812;7.132;2023-03-01T14:59:25;9.20;;;8.30;;
4106;SDS011;21906;50.812;7.132;2023-03-01T15:01:51;11.20;;;7.70;;
4106;SDS011;21906;50.812;7.132;2023-03-01T15:04:20;11.07;;;9.07;;
4106;SDS011;21906;50.812;7.132;2023-03-01T15:06:51;8.40;;;7.33;;
4106;SDS011;21906;50.812;7.132;2023-03-01T15:09:29;12.27;;;9.10;;
4106;SDS011;21906;50.812;7.132;2023-03-01T15:11:59;8.83;;;8.10;;
4106;SDS011;21906;50.812;7.132;2023-03-01T15:14:46;8.53;;;7.10;;
4106;SDS011;21906;50.812;7.132;2023-03-01T15:19:56;11.90;;;8.30;;
4106;SDS011;21906;50.812;7.132;2023-03-01T15:22:23;11.03;;;8.60;;
4106;SDS011;21906;50.812;7.132;2023-03-01T15:24:51;8.47;;;7.67;;
4106;SDS011;21906;50.812;7.132;2023-03-01T15:27:19;8.13;;;7.33;;
4106;SDS011;21906;50.812;7.132;2023-03-01T15:29:52;8.20;;;7.40;;
4106;SDS011;21906;50.812;7.132;2023-03-01T15:32:29;8.60;;;7.80;;
4106;SDS011;21906;50.812;7.132;2023-03-01T15:34:58;8.63;;;7.80;;
4106;SDS011;21906;50.812;7.132;2023-03-01T15:37:44;10.43;;;8.00;;
4106;SDS011;21906;50.812;7.132;2023-03-01T15:40:19;10.73;;;8.87;;
4106;SDS011;21906;50.812;7.132;2023-03-01T15:42:46;9.10;;;8.20;;
4106;SDS011;21906;50.812;7.132;2023-03-01T15:47:40;11.93;;;9.70;;
4106;SDS011;21906;50.812;7.132;2023-03-01T15:50:17;14.30;;;10.97;;
4106;SDS011;21906;50.812;7.132;2023-03-01T15:52:47;10.03;;;8.67;;
4106;SDS011;21906;50.812;7.132;2023-03-01T15:57:47;10.43;;;9.03;;
4106;SDS011;21906;50.812;7.132;2023-03-01T16:00:13;9.50;;;8.17;;
4106;SDS011;21906;50.812;7.132;2023-03-01T16:02:43;10.33;;;7.97;;
4106;SDS011;21906;50.812;7.132;2023-03-01T16:05:15;9.00;;;8.10;;
4106;SDS011;21906;50.812;7.132;2023-03-01T16:07:51;8.57;;;7.47;;
4106;SDS011;21906;50.812;7.132;2023-03-01T16:10:17;8.60;;;7.53;;
4106;SDS011;21906;50.812;7.132;2023-03-01T16:12:44;10.37;;;7.80;;
4106;SDS011;21906;50.812;7.132;2023-03-01T16:15:16;8.73;;;7.67;;
4106;SDS011;21906;50.812;7.132;2023-03-01T16:17:49;8.57;;;7.17;;
4106;SDS011;21906;50.812;7.132;2023-03-01T16:20:25;8.77;;;7.87;;
4106;SDS011;21906;50.812;7.132;2023-03-01T16:23:00;7.63;;;6.83;;
4106;SDS011;21906;50.812;7.132;2023-03-01T16:25:27;9.27;;;7.80;;
4106;SDS011;21906;50.812;7.132;2023-03-01T16:27:53;10.73;;;8.57;;
4106;SDS011;21906;50.812;7.132;2023-03-01T16:30:21;9.60;;;8.27;;
4106;SDS011;21906;50.812;7.132;2023-03-01T16:32:48;9.10;;;7.00;;
4106;SDS011;21906;50.812;7.132;2023-03-01T16:35:16;8.53;;;7.10;;
4106;SDS011;21906;50.812;7.132;2023-03-01T16:37:44;17.00;;;9.03;;
4106;SDS011;21906;50.812;7.132;2023-03-01T16:40:18;13.00;;;9.30;;
4106;SDS011;21906;50.812;7.132;2023-03-01T16:42:54;9.17;;;7.07;;
4106;SDS011;21906;50.812;7.132;2023-03-01T16:45:24;14.80;;;8.00;;
4106;SDS011;21906;50.812;7.132;2023-03-01T16:47:51;10.97;;;8.27;;
4106;SDS011;21906;50.812;7.132;2023-03-01T16:50:18;13.67;;;8.20;;
4106;SDS011;21906;50.812;7.132;2023-03-01T16:52:44;9.07;;;7.50;;
4106;SDS011;21906;50.812;7.132;2023-03-01T16:55:10;11.63;;;8.33;;
4106;SDS011;21906;50.812;7.132;2023-03-01T16:57:36;10.17;;;7.77;;
4106;SDS011;21906;50.812;7.132;2023-03-01T17:00:06;9.73;;;7.60;;
4106;SDS011;21906;50.812;7.132;2023-03-01T17:02:39;9.73;;;7.50;;
4106;SDS011;21906;50.812;7.132;2023-03-01T17:05:06;11.77;;;8.80;;
4106;SDS011;21906;50.812;7.132;2023-03-01T17:07:33;10.37;;;7.83;;
4106;SDS011;21906;50.812;7.132;2023-03-01T17:10:03;12.50;;;8.57;;
4106;SDS011;21906;50.812;7.132;2023-03-01T17:12:30;12.33;;;8.27;;
4106;SDS011;21906;50.812;7.132;2023-03-01T17:14:57;12.50;;;8.23;;
4106;SDS011;21906;50.812;7.132;2023-03-01T17:17:23;9.60;;;7.80;;
4106;SDS011;21906;50.812;7.132;2023-03-01T17:19:50;12.03;;;7.43;;
4106;SDS011;21906;50.812;7.132;2023-03-01T17:22:21;10.13;;;8.10;;
4106;SDS011;21906;50.812;7.132;2023-03-01T17:24:51;11.57;;;8.00;;
4106;SDS011;21906;50.812;7.132;2023-03-01T17:27:17;12.37;;;8.70;;
4106;SDS011;21906;50.812;7.132;2023-03-01T17:29:43;10.53;;;7.70;;
4106;SDS011;21906;50.812;7.132;2023-03-01T17:32:09;13.83;;;8.33;;
4106;SDS011;21906;50.812;7.132;2023-03-01T17:34:35;11.83;;;8.10;;